createdAt,value
2024-05-09T00:00:18.684Z,14.40
2024-05-09T00:03:13.955Z,13.88
2024-05-09T00:06:01.707Z,15.07
2024-05-09T00:08:49.168Z,13.90
2024-05-09T00:11:36.460Z,14.68
2024-05-09T00:14:23.874Z,14.25
2024-05-09T00:17:11.185Z,14.80
2024-05-09T00:19:58.620Z,14.55
2024-05-09T00:22:45.936Z,13.82
2024-05-09T00:25:33.312Z,14.18
2024-05-09T00:28:20.544Z,13.52
2024-05-09T00:31:07.826Z,13.90
2024-05-09T00:33:55.234Z,12.88
2024-05-09T00:36:42.538Z,13.95
2024-05-09T00:39:29.853Z,14.15
2024-05-09T00:42:17.109Z,13.88
2024-05-09T00:45:06.772Z,14.32
2024-05-09T00:47:54.528Z,13.93
2024-05-09T00:50:45.021Z,14.00
2024-05-09T00:53:34.198Z,13.88
2024-05-09T00:56:22.484Z,13.50
2024-05-09T00:59:10.031Z,13.13
2024-05-09T01:02:00.541Z,14.40
2024-05-09T01:04:48.095Z,14.32
2024-05-09T01:07:35.593Z,13.13
2024-05-09T01:10:28.193Z,14.15
2024-05-09T01:13:21.401Z,13.80
2024-05-09T01:16:08.706Z,13.75
2024-05-09T01:18:56.952Z,14.60
2024-05-09T01:21:44.362Z,13.82
2024-05-09T01:24:31.670Z,13.98
2024-05-09T01:27:19.075Z,14.00
2024-05-09T01:30:09.593Z,13.68
2024-05-09T01:33:02.085Z,14.07
2024-05-09T01:35:49.486Z,14.07
2024-05-09T01:38:36.849Z,13.70
2024-05-09T01:41:24.479Z,14.43
2024-05-09T01:44:11.791Z,14.45
2024-05-09T01:46:59.184Z,14.43
2024-05-09T01:49:46.601Z,15.15
2024-05-09T01:52:38.521Z,15.43
2024-05-09T01:55:25.846Z,15.57
2024-05-09T01:58:13.360Z,15.40
2024-05-09T02:01:02.189Z,14.43
2024-05-09T02:03:49.932Z,15.55
2024-05-09T02:06:43.531Z,15.45
2024-05-09T02:09:30.811Z,14.50
2024-05-09T02:12:18.148Z,15.63
2024-05-09T02:15:06.390Z,15.02
2024-05-09T02:17:54.089Z,14.60
2024-05-09T02:20:42.905Z,14.13
2024-05-09T02:23:30.928Z,15.10
2024-05-09T02:26:18.351Z,15.63
2024-05-09T02:29:05.764Z,13.90
2024-05-09T02:31:53.208Z,14.88
2024-05-09T02:34:40.459Z,15.15
2024-05-09T02:37:27.760Z,14.95
2024-05-09T02:40:21.577Z,15.23
2024-05-09T02:43:13.310Z,16.15
2024-05-09T02:46:00.740Z,15.38
2024-05-09T02:48:48.320Z,16.65
2024-05-09T02:51:35.664Z,15.90
2024-05-09T02:54:23.001Z,16.02
2024-05-09T02:57:10.347Z,15.77
2024-05-09T02:59:57.634Z,14.23
2024-05-09T03:02:45.092Z,15.95
2024-05-09T03:05:32.637Z,15.95
2024-05-09T03:08:19.937Z,15.32
2024-05-09T03:11:07.260Z,15.90
2024-05-09T03:13:55.252Z,15.43
2024-05-09T03:16:42.541Z,14.70
2024-05-09T03:19:29.896Z,15.85
2024-05-09T03:22:17.362Z,14.65
2024-05-09T03:25:05.052Z,15.90
2024-05-09T03:27:53.549Z,15.60
2024-05-09T03:30:42.990Z,16.13
2024-05-09T03:33:30.868Z,14.82
2024-05-09T03:36:18.306Z,16.95
2024-05-09T03:39:05.588Z,17.13
2024-05-09T03:41:52.867Z,16.60
2024-05-09T03:44:40.383Z,15.38
2024-05-09T03:47:27.969Z,16.80
2024-05-09T03:50:22.150Z,16.17
2024-05-09T03:53:14.840Z,16.38
2024-05-09T03:56:03.802Z,15.70
2024-05-09T03:58:51.300Z,16.60
2024-05-09T04:01:38.699Z,16.67
2024-05-09T04:04:25.999Z,15.77
2024-05-09T04:07:13.265Z,16.45
2024-05-09T04:10:00.570Z,16.33
2024-05-09T04:12:47.805Z,16.52
2024-05-09T04:15:35.182Z,16.42
2024-05-09T04:18:22.577Z,15.95
2024-05-09T04:21:10.032Z,16.70
2024-05-09T04:23:57.346Z,15.38
2024-05-09T04:26:44.556Z,16.00
2024-05-09T04:29:32.292Z,15.48
2024-05-09T04:32:19.698Z,14.75
2024-05-09T04:35:07.178Z,16.20
2024-05-09T04:37:54.581Z,16.17
2024-05-09T04:40:42.056Z,17.10
2024-05-09T04:43:29.303Z,16.52
2024-05-09T04:46:16.647Z,16.92
2024-05-09T04:49:04.140Z,15.75
2024-05-09T04:51:51.496Z,16.75
2024-05-09T04:54:38.772Z,16.67
2024-05-09T04:57:26.024Z,16.40
2024-05-09T05:00:15.001Z,16.80
2024-05-09T05:03:14.292Z,16.23
2024-05-09T05:06:03.461Z,17.00
2024-05-09T05:08:51.302Z,16.33
2024-05-09T05:11:38.700Z,17.20
2024-05-09T05:14:26.022Z,16.95
2024-05-09T05:17:13.333Z,16.92
2024-05-09T05:20:00.757Z,15.80
2024-05-09T05:22:48.142Z,16.05
2024-05-09T05:25:35.414Z,17.63
2024-05-09T05:28:23.538Z,16.85
2024-05-09T05:31:11.080Z,17.40
2024-05-09T05:33:58.493Z,18.58
2024-05-09T05:36:45.849Z,15.70
2024-05-09T05:39:33.158Z,16.83
2024-05-09T05:42:20.517Z,17.08
2024-05-09T05:45:09.966Z,16.52
2024-05-09T05:47:57.573Z,18.15
2024-05-09T05:50:45.419Z,17.55
2024-05-09T05:53:32.879Z,17.20
2024-05-09T05:56:20.357Z,17.08
2024-05-09T05:59:08.367Z,17.15
2024-05-09T06:01:55.813Z,19.35
2024-05-09T06:04:43.410Z,19.00
2024-05-09T06:07:30.760Z,18.20
2024-05-09T06:10:25.143Z,17.80
2024-05-09T06:13:14.423Z,18.08
2024-05-09T06:16:02.489Z,17.52
2024-05-09T06:18:50.057Z,18.27
2024-05-09T06:21:37.392Z,16.63
2024-05-09T06:24:24.699Z,17.33
2024-05-09T06:27:11.958Z,17.90
2024-05-09T06:29:59.325Z,18.20
2024-05-09T06:32:46.796Z,17.92
2024-05-09T06:35:34.399Z,16.70
2024-05-09T06:38:21.920Z,18.17
2024-05-09T06:41:09.393Z,15.82
2024-05-09T06:43:56.870Z,16.98
2024-05-09T06:46:45.438Z,18.55
2024-05-09T06:49:33.112Z,17.85
2024-05-09T06:52:20.455Z,16.63
2024-05-09T06:55:07.788Z,16.83
2024-05-09T06:57:55.095Z,18.02
2024-05-09T07:00:42.636Z,15.68
2024-05-09T07:03:30.629Z,16.88
2024-05-09T07:06:17.984Z,17.45
2024-05-09T07:09:05.310Z,18.42
2024-05-09T07:11:52.618Z,17.73
2024-05-09T07:14:40.121Z,16.52
2024-05-09T07:17:27.673Z,16.52
2024-05-09T07:20:22.959Z,16.33
2024-05-09T07:23:16.131Z,16.17
2024-05-09T07:26:03.669Z,16.30
2024-05-09T07:28:51.000Z,16.52
2024-05-09T07:31:38.407Z,16.70
2024-05-09T07:34:25.880Z,16.80
2024-05-09T07:37:14.207Z,16.25
2024-05-09T07:40:01.693Z,15.63
2024-05-09T07:42:48.951Z,16.48
2024-05-09T07:50:00.225Z,14.15
2024-05-09T07:53:14.063Z,14.27
2024-05-09T07:54:45.305Z,15.10
2024-05-09T07:57:32.779Z,15.18
2024-05-09T08:00:26.833Z,14.45
2024-05-09T08:03:17.007Z,15.07
2024-05-09T08:06:04.745Z,14.68
2024-05-09T08:08:52.073Z,14.77
2024-05-09T08:11:39.377Z,15.20
2024-05-09T08:14:27.638Z,14.80
2024-05-09T08:17:15.065Z,15.10
2024-05-09T08:20:05.407Z,14.70
2024-05-09T08:22:52.802Z,14.20
2024-05-09T08:25:40.195Z,14.15
2024-05-09T08:28:27.528Z,14.48
2024-05-09T08:31:15.253Z,13.40
2024-05-09T08:34:03.290Z,13.70
2024-05-09T08:36:51.939Z,13.15
2024-05-09T08:39:39.318Z,14.15
2024-05-09T08:42:32.164Z,14.32
2024-05-09T08:45:19.584Z,13.00
2024-05-09T08:48:08.924Z,13.68
2024-05-09T08:50:59.494Z,14.63
2024-05-09T08:53:46.959Z,14.85
2024-05-09T08:56:35.617Z,14.10
2024-05-09T08:59:44.431Z,14.80
2024-05-09T09:02:33.125Z,14.15
2024-05-09T09:05:28.154Z,14.25
2024-05-09T09:08:16.504Z,13.52
2024-05-09T09:11:04.324Z,14.10
2024-05-09T09:13:51.637Z,14.65
2024-05-09T09:16:38.936Z,15.13
2024-05-09T09:19:26.344Z,14.85
2024-05-09T09:22:15.248Z,14.95
2024-05-09T09:25:02.637Z,15.60
2024-05-09T09:27:50.304Z,16.42
2024-05-09T09:30:42.448Z,15.63
2024-05-09T09:33:35.609Z,15.80
2024-05-09T09:36:23.195Z,16.08
2024-05-09T09:39:14.484Z,15.55
2024-05-09T09:42:04.602Z,15.50
2024-05-09T09:45:02.090Z,16.15
2024-05-09T09:47:57.257Z,15.88
2024-05-09T09:50:47.364Z,15.15
2024-05-09T09:53:38.521Z,16.23
2024-05-09T09:56:28.359Z,16.08
2024-05-09T09:59:16.759Z,15.05
2024-05-09T10:02:04.414Z,15.18
2024-05-09T10:04:52.300Z,14.50
2024-05-09T10:07:43.705Z,15.65
2024-05-09T10:10:35.653Z,15.95
2024-05-09T10:13:33.752Z,15.98
2024-05-09T10:16:23.251Z,15.45
2024-05-09T10:19:31.141Z,15.30
2024-05-09T10:22:28.691Z,15.35
2024-05-09T10:25:17.034Z,15.55
2024-05-09T10:28:05.074Z,14.45
2024-05-09T10:31:14.047Z,14.75
2024-05-09T10:34:02.698Z,14.00
2024-05-09T10:36:55.144Z,15.70
2024-05-09T10:39:42.998Z,15.00
2024-05-09T10:42:31.021Z,14.15
2024-05-09T10:45:18.536Z,14.48
2024-05-09T10:48:07.141Z,13.68
2024-05-09T10:50:54.953Z,13.95
2024-05-09T10:53:43.785Z,13.98
2024-05-09T10:56:31.347Z,13.90
2024-05-09T10:59:18.593Z,14.52
2024-05-09T11:02:10.812Z,13.77
2024-05-09T11:04:58.408Z,14.60
2024-05-09T11:07:45.895Z,13.57
2024-05-09T11:10:34.443Z,13.65
2024-05-09T11:13:32.279Z,14.98
2024-05-09T11:16:21.626Z,15.25
2024-05-09T11:19:14.169Z,13.95
2024-05-09T11:22:02.192Z,13.80
2024-05-09T11:24:49.778Z,12.32
2024-05-09T11:27:37.180Z,12.00
2024-05-09T11:30:30.065Z,11.15
2024-05-09T11:33:19.882Z,11.77
2024-05-09T11:36:09.351Z,10.23
2024-05-09T11:38:56.756Z,11.40
2024-05-09T11:41:44.030Z,11.30
2024-05-09T11:44:31.367Z,10.02
2024-05-09T11:47:18.842Z,10.30
2024-05-09T11:50:08.234Z,9.88
2024-05-09T11:52:57.587Z,11.07
2024-05-09T11:55:44.963Z,13.57
2024-05-09T11:58:34.740Z,13.27
2024-05-09T12:01:25.111Z,12.27
2024-05-09T12:04:13.754Z,11.77
2024-05-09T12:07:01.402Z,12.88
2024-05-09T12:09:48.742Z,13.13
2024-05-09T12:12:37.526Z,13.15
2024-05-09T12:15:24.951Z,12.68
2024-05-09T12:18:12.321Z,12.35
2024-05-09T12:21:03.105Z,12.95
2024-05-09T12:23:50.685Z,11.48
2024-05-09T12:26:38.082Z,11.52
2024-05-09T12:29:26.405Z,11.80
2024-05-09T12:32:13.795Z,11.35
2024-05-09T12:35:01.053Z,11.95
2024-05-09T12:37:48.444Z,12.40
2024-05-09T12:40:38.408Z,12.35
2024-05-09T12:43:26.792Z,12.50
2024-05-09T12:46:14.396Z,12.25
2024-05-09T12:49:01.906Z,11.77
2024-05-09T12:51:49.377Z,11.32
2024-05-09T12:54:37.402Z,11.98
2024-05-09T12:57:25.856Z,11.88
2024-05-09T13:00:23.262Z,13.10
2024-05-09T13:03:15.467Z,12.23
2024-05-09T13:06:02.970Z,11.57
2024-05-09T13:08:50.413Z,12.65
2024-05-09T13:11:38.107Z,13.00
2024-05-09T13:14:25.603Z,11.75
2024-05-09T13:17:13.024Z,12.13
2024-05-09T13:20:00.431Z,12.02
2024-05-09T13:22:48.704Z,10.13
2024-05-09T13:25:39.099Z,9.48
2024-05-09T13:31:15.212Z,12.82
2024-05-09T13:34:02.691Z,12.63
2024-05-09T13:36:50.376Z,16.00
2024-05-09T13:39:37.789Z,13.70
2024-05-09T13:42:25.157Z,14.93
2024-05-09T13:45:12.783Z,14.18
2024-05-09T13:48:00.928Z,13.85
2024-05-09T13:50:48.598Z,14.00
2024-05-09T13:53:35.955Z,14.98
2024-05-09T13:56:23.390Z,14.90
2024-05-09T13:59:10.996Z,15.45
2024-05-09T14:01:58.699Z,15.02
2024-05-09T14:04:46.167Z,14.98
2024-05-09T14:07:33.625Z,15.27
2024-05-09T14:10:26.210Z,15.90
2024-05-09T14:13:18.631Z,15.68
2024-05-09T14:16:06.857Z,17.25
2024-05-09T14:18:54.287Z,15.90
2024-05-09T14:21:41.644Z,16.20
2024-05-09T14:24:28.948Z,16.13
2024-05-09T14:27:16.421Z,15.65
2024-05-09T14:30:07.327Z,15.45
2024-05-09T14:32:56.904Z,15.48
2024-05-09T14:35:44.447Z,15.15
2024-05-09T14:38:31.943Z,15.60
2024-05-09T14:41:19.699Z,15.32
2024-05-09T14:44:07.554Z,15.18
2024-05-09T14:46:54.959Z,14.73
2024-05-09T14:49:42.588Z,16.25
2024-05-09T14:52:29.920Z,16.30
2024-05-09T14:55:17.314Z,14.38
2024-05-09T14:58:07.376Z,16.80
2024-05-09T15:00:55.109Z,15.10
2024-05-09T15:03:42.700Z,15.73
2024-05-09T15:06:30.329Z,15.10
2024-05-09T15:09:17.839Z,14.45
2024-05-09T15:12:05.537Z,13.57
2024-05-09T15:14:52.880Z,15.05
2024-05-09T15:17:40.837Z,14.15
2024-05-09T15:20:34.563Z,14.60
2024-05-09T15:23:24.153Z,14.52
2024-05-09T15:26:11.855Z,14.38
2024-05-09T15:28:59.362Z,14.93
2024-05-09T15:31:46.635Z,13.90
2024-05-09T15:34:34.067Z,15.18
2024-05-09T15:37:22.549Z,14.80
2024-05-09T15:40:15.338Z,13.77
2024-05-09T15:43:11.255Z,14.32
2024-05-09T15:45:59.398Z,14.43
2024-05-09T15:48:47.184Z,14.20
2024-05-09T15:51:34.981Z,14.70
2024-05-09T15:54:23.688Z,15.23
2024-05-09T15:57:12.900Z,15.95
2024-05-09T16:00:00.379Z,15.63
2024-05-09T16:02:47.891Z,15.18
2024-05-09T16:05:35.563Z,16.23
2024-05-09T16:08:23.495Z,16.05
2024-05-09T16:11:10.921Z,16.65
2024-05-09T16:13:58.323Z,14.85
2024-05-09T16:16:46.143Z,15.55
2024-05-09T16:19:33.733Z,15.63
2024-05-09T16:22:21.043Z,15.35
2024-05-09T16:25:08.387Z,15.20
2024-05-09T16:27:55.802Z,14.65
2024-05-09T16:30:43.301Z,15.45
2024-05-09T16:33:31.223Z,15.30
2024-05-09T16:36:18.764Z,14.65
2024-05-09T16:39:06.064Z,14.13
2024-05-09T16:41:53.340Z,15.00
2024-05-09T16:44:40.646Z,15.50
2024-05-09T16:47:28.331Z,14.88
2024-05-09T16:50:19.266Z,15.55
2024-05-09T16:53:09.626Z,14.45
2024-05-09T16:55:56.976Z,14.30
2024-05-09T16:58:44.290Z,13.18
2024-05-09T17:01:31.742Z,12.98
2024-05-09T17:04:19.442Z,14.38
2024-05-09T17:07:06.969Z,15.23
2024-05-09T17:09:54.611Z,15.13
2024-05-09T17:12:43.470Z,13.38
2024-05-09T17:15:31.096Z,14.95
2024-05-09T17:18:18.728Z,14.88
2024-05-09T17:21:06.313Z,14.80
2024-05-09T17:23:55.660Z,13.80
2024-05-09T17:26:42.979Z,14.32
2024-05-09T17:29:30.694Z,13.82
2024-05-09T17:32:18.095Z,13.60
2024-05-09T17:35:06.173Z,13.50
2024-05-09T17:37:53.709Z,14.38
2024-05-09T17:40:41.218Z,14.00
2024-05-09T17:43:28.900Z,14.15
2024-05-09T17:46:16.460Z,14.05
2024-05-09T17:49:04.402Z,13.40
2024-05-09T17:51:55.554Z,14.95
2024-05-09T17:54:42.872Z,15.13
2024-05-09T17:57:30.305Z,14.90
2024-05-09T18:00:28.542Z,14.02
2024-05-09T18:03:24.134Z,13.55
2024-05-09T18:06:11.481Z,15.35
2024-05-09T18:08:58.681Z,14.43
2024-05-09T18:11:46.266Z,14.52
2024-05-09T18:14:33.616Z,13.77
2024-05-09T18:17:23.635Z,14.35
2024-05-09T18:20:19.694Z,13.77
2024-05-09T18:23:18.003Z,13.07
2024-05-09T18:26:06.221Z,14.23
2024-05-09T18:28:53.573Z,13.27
2024-05-09T18:31:40.861Z,15.25
2024-05-09T18:34:28.282Z,14.35
2024-05-09T18:37:15.740Z,13.75
2024-05-09T18:40:03.403Z,14.52
2024-05-09T18:42:51.793Z,14.18
2024-05-09T18:45:39.783Z,14.68
2024-05-09T18:48:27.351Z,14.40
2024-05-09T18:51:14.807Z,13.82
2024-05-09T18:54:02.152Z,12.73
2024-05-09T18:56:49.503Z,13.75
2024-05-09T18:59:36.930Z,14.40
2024-05-09T19:02:24.388Z,13.88
2024-05-09T19:05:11.987Z,13.38
2024-05-09T19:07:59.662Z,14.20
2024-05-09T19:10:47.170Z,13.35
2024-05-09T19:13:34.605Z,14.77
2024-05-09T19:16:22.199Z,14.55
2024-05-09T19:19:10.082Z,14.23
2024-05-09T19:21:58.203Z,13.80
2024-05-09T19:24:45.576Z,13.70
2024-05-09T19:27:32.954Z,14.23
2024-05-09T19:30:29.783Z,14.10
2024-05-09T19:33:26.127Z,14.40
2024-05-09T19:36:13.634Z,13.90
2024-05-09T19:39:00.993Z,15.07
2024-05-09T19:41:48.403Z,14.02
2024-05-09T19:44:35.704Z,15.40
2024-05-09T19:47:23.248Z,15.07
2024-05-09T19:50:13.896Z,14.18
2024-05-09T19:53:04.028Z,14.60
2024-05-09T19:55:51.419Z,13.63
2024-05-09T19:58:38.745Z,14.43
2024-05-09T20:01:26.156Z,14.90
2024-05-09T20:04:13.838Z,14.38
2024-05-09T20:07:01.254Z,15.65
2024-05-09T20:09:48.589Z,15.57
2024-05-09T20:12:36.059Z,16.13
2024-05-09T20:15:23.382Z,16.20
2024-05-09T20:18:11.440Z,16.75
2024-05-09T20:21:00.103Z,16.58
2024-05-09T20:23:47.544Z,16.35
2024-05-09T20:26:34.807Z,16.10
2024-05-09T20:29:22.461Z,16.35
2024-05-09T20:32:09.767Z,16.55
2024-05-09T20:34:57.000Z,16.33
2024-05-09T20:37:44.227Z,16.23
2024-05-09T20:40:36.924Z,16.52
2024-05-09T20:43:26.586Z,17.08
2024-05-09T20:46:17.274Z,16.67
2024-05-09T20:49:04.800Z,17.15
2024-05-09T20:51:52.214Z,17.13
2024-05-09T20:54:39.528Z,16.65
2024-05-09T20:57:26.838Z,17.38
2024-05-09T21:00:18.847Z,18.35
2024-05-09T21:03:10.505Z,17.15
2024-05-09T21:05:58.721Z,19.02
2024-05-09T21:08:45.989Z,18.35
2024-05-09T21:11:33.297Z,18.75
2024-05-09T21:14:20.613Z,18.70
2024-05-09T21:17:08.056Z,18.15
2024-05-09T21:19:55.362Z,19.35
2024-05-09T21:22:44.255Z,18.35
2024-05-09T21:25:32.283Z,18.27
2024-05-09T21:28:19.881Z,18.27
2024-05-09T21:31:08.876Z,18.52
2024-05-09T21:33:56.283Z,18.27
2024-05-09T21:36:43.748Z,17.65
2024-05-09T21:39:31.188Z,17.23
2024-05-09T21:42:18.434Z,17.83
2024-05-09T21:45:06.443Z,17.67
2024-05-09T21:47:53.817Z,18.05
2024-05-09T21:50:42.583Z,18.42
2024-05-09T21:53:30.163Z,18.58
2024-05-09T21:56:17.394Z,18.58
2024-05-09T21:59:04.791Z,18.52
2024-05-09T22:01:52.093Z,18.13
2024-05-09T22:04:40.080Z,19.48
2024-05-09T22:07:27.450Z,20.10
2024-05-09T22:10:22.775Z,20.05
2024-05-09T22:13:16.157Z,19.10
2024-05-09T22:16:04.572Z,19.90
2024-05-09T22:18:52.220Z,18.90
2024-05-09T22:21:39.589Z,19.65
2024-05-09T22:24:26.906Z,20.85
2024-05-09T22:27:14.170Z,19.23
2024-05-09T22:30:01.456Z,21.85
2024-05-09T22:32:48.840Z,20.98
2024-05-09T22:35:36.143Z,20.15
2024-05-09T22:38:23.338Z,21.70
2024-05-09T22:41:10.662Z,20.55
2024-05-09T22:43:58.630Z,20.02
2024-05-09T22:46:45.957Z,21.17
2024-05-09T22:49:33.370Z,20.33
2024-05-09T22:52:20.696Z,20.17
2024-05-09T22:55:08.474Z,19.45
2024-05-09T22:57:56.331Z,19.55
2024-05-09T23:00:43.857Z,19.65
2024-05-09T23:03:33.072Z,20.77
2024-05-09T23:06:20.506Z,20.85
2024-05-09T23:09:09.779Z,20.70
2024-05-09T23:11:57.266Z,20.95
2024-05-09T23:14:45.324Z,20.48
2024-05-09T23:17:32.742Z,20.27
2024-05-09T23:20:29.909Z,20.15
2024-05-09T23:23:24.031Z,20.77
2024-05-09T23:26:11.396Z,20.38
2024-05-09T23:28:59.238Z,20.58
2024-05-09T23:31:46.667Z,20.33
2024-05-09T23:34:33.944Z,19.52
2024-05-09T23:37:21.356Z,22.40
2024-05-09T23:40:15.111Z,20.50
2024-05-09T23:43:05.902Z,20.88
2024-05-09T23:45:53.230Z,21.67
2024-05-09T23:48:40.618Z,20.45
2024-05-09T23:51:27.935Z,21.67
2024-05-09T23:54:15.200Z,20.33
2024-05-09T23:57:02.524Z,21.13
2024-05-09T23:59:49.861Z,20.73
